• Join FlightAware (Why Join?)
  • Login
  • US Flag 
10:32PM EDT


 

Airport Tracker/Info


-or-


 

Live Flight TrackerFlight Track Log ✈ AAR8734 ✈ 22-Jan-2014 ✈ RKJY / RSU - RKSS / GMP

Flight Track Log - Related Links

Times and Time Zones

All times are in EST time to prevent confusion due to time zone crossing. See the AAR8734 flight status page for this flight to view local times or setup timezone preferences in your user account.

Time Position Orientation Groundspeed Altitude Reporting Facility
EST Latitude Longitude Course Direction KTS MPH feet Rate Location/Type
09:25PM 35.1606 127.5210 346° North  Level Estimated
09:26PM 35.2408 127.4973 346° North  Level Estimated
09:27PM 35.3210 127.4736 346° North  Level Estimated
09:28PM 35.4012 127.4498 346° North  Level Estimated
09:29PM 35.4813 127.4259 346° North  Level Estimated
09:30PM 35.5615 127.4020 346° North  Level Estimated
09:31PM 35.6417 127.3781 346° North  Level Estimated
09:32PM 35.7218 127.3541 346° North  Level Estimated
09:33PM 35.8020 127.3301 346° North  Level Estimated
09:34PM 35.8821 127.3060 346° North  Level Estimated
09:35PM 35.9623 127.2819 346° North  Level Estimated
09:36PM 36.0424 127.2577 346° North  Level Estimated
09:37PM 36.1226 127.2335 346° North  Level Estimated
09:38PM 36.2027 127.2092 346° North  Level Estimated
09:39PM 36.2828 127.1849 346° North  Level Estimated
09:40PM 36.3630 127.1605 346° North  Level Estimated
09:41PM 36.4431 127.1361 346° North  Level Estimated
09:42PM 36.5232 127.1116 346° North  Level Estimated
09:43PM 36.6033 127.0871 346° North  Level Estimated
09:44PM 36.6834 127.0625 346° North  Level Estimated
09:45PM 36.7635 127.0379 346° North  Level Estimated
09:46PM 36.8436 127.0132 346° North  Level Estimated
09:47PM 36.9237 126.9885 346° North  Level Estimated
09:48PM 37.0038 126.9637 346° North  Level Estimated
09:49PM 37.0838 126.9389 346° North  Level Estimated
09:50PM 37.1639 126.9140 346° North  Level Estimated
09:51PM 37.2440 126.8890 346° North  Level Estimated
09:52PM 37.3240 126.8640 346° North  Level Estimated
09:53PM 37.4041 126.8390 346° North  Level Estimated
09:54PM 37.4841 126.8139 346° North  Level Estimated
09:55PM 37.5583 126.7906 346° North  Level Estimated
09:56PM 37.5583 126.7906 288° West  Level Estimated
09:57PM 37.5583 126.7906 288° West  Level Estimated
09:58PM 37.5583 126.7906 288° West  Level Estimated
09:59PM 37.5583 126.7906 288° West  Level Estimated
10:00PM 37.5583 126.7906 288° West  Level Estimated
10:01PM 37.5583 126.7906 288° West  Level Estimated
10:02PM 37.5583 126.7906 288° West  Level Estimated
10:03PM 37.5583 126.7906 288° West  Level Estimated
10:04PM 37.5583 126.7906 288° West  Level Estimated
10:05PM 37.5583 126.7906 288° West  Level Estimated
10:06PM 37.5583 126.7906 288° West  Level Estimated
10:07PM 37.5583 126.7906 288° West  Level Estimated
10:08PM 37.5583 126.7906 288° West  Level Estimated
10:09PM 37.5583 126.7906 288° West  Level Estimated
10:10PM 37.5583 126.7906 288° West  Level Estimated
10:11PM 37.5583 126.7906 288° West  Level Estimated